Time;durP1;ratioP1;P1;durP2;ratioP2;P2;SDS_P1;SDS_P2;PMS_P1;PMS_P2;Temp;Humidity;BMP_temperature;BMP_pressure;BME280_temperature;BME280_humidity;BME280_pressure;Samples;Min_cycle;Max_cycle;Signal;HPM_P1;HPM_P2
2021/12/15 05:08:28;;;;;;;2.03;1.92;;;2.80;99.90;;;;;;5426331;23;20236;-68
2021/12/15 05:10:56;;;;;;;1.95;1.85;;;2.80;99.90;;;;;;5013285;28;20245;-67
2021/12/15 05:13:23;;;;;;;1.73;1.73;;;2.80;99.90;;;;;;5013584;28;20206;-67
2021/12/15 05:15:51;;;;;;;1.90;1.80;;;2.70;99.90;;;;;;5013384;28;20201;-67
2021/12/15 05:18:18;;;;;;;1.88;1.80;;;2.80;99.90;;;;;;5013245;28;20257;-67
2021/12/15 05:20:48;;;;;;;2.13;2.00;;;2.80;99.90;;;;;;5013403;28;20287;-66
2021/12/15 05:23:17;;;;;;;2.03;1.90;;;2.80;99.90;;;;;;5013866;28;20190;-67
2021/12/15 05:25:46;;;;;;;2.45;2.35;;;2.90;99.90;;;;;;5013252;28;20198;-67
2021/12/15 05:28:13;;;;;;;2.13;2.03;;;2.80;99.90;;;;;;5013558;28;20323;-68
2021/12/15 05:30:41;;;;;;;2.45;2.35;;;2.80;99.90;;;;;;5013567;28;20252;-67
2021/12/15 05:33:08;;;;;;;2.42;2.33;;;2.80;99.90;;;;;;5013547;28;20241;-67
2021/12/15 05:35:37;;;;;;;2.40;2.30;;;2.90;99.90;;;;;;5013427;28;20253;-66
2021/12/15 05:38:06;;;;;;;2.30;2.20;;;2.90;99.90;;;;;;5013447;28;20229;-66
2021/12/15 05:40:33;;;;;;;2.45;2.35;;;2.90;99.90;;;;;;5013644;28;20202;-66
2021/12/15 05:43:04;;;;;;;2.90;2.70;;;2.80;99.90;;;;;;5013211;28;20625;-66
2021/12/15 05:45:36;;;;;;;3.15;2.85;;;2.80;99.90;;;;;;5014155;28;20618;-66
2021/12/15 05:48:05;;;;;;;2.97;2.75;;;2.70;99.90;;;;;;5013785;28;20261;-65
2021/12/15 05:50:33;;;;;;;2.83;2.60;;;2.70;99.90;;;;;;5013515;28;20237;-65
2021/12/15 05:53:01;;;;;;;2.97;2.75;;;2.80;99.90;;;;;;5013328;28;20264;-66
2021/12/15 05:55:29;;;;;;;3.35;3.05;;;2.80;99.90;;;;;;5012980;28;20709;-65
2021/12/15 05:57:56;;;;;;;3.35;3.05;;;2.80;99.90;;;;;;5012988;28;20249;-65
2021/12/15 06:00:28;;;;;;;4.68;3.20;;;2.70;99.90;;;;;;5013308;28;20277;-65
2021/12/15 06:02:56;;;;;;;2.95;2.75;;;2.70;99.90;;;;;;5013336;28;20614;-65
2021/12/15 06:05:25;;;;;;;3.63;2.97;;;2.70;99.90;;;;;;5013232;28;20678;-65
2021/12/15 06:07:52;;;;;;;3.47;3.17;;;2.70;99.90;;;;;;5013365;28;20258;-66
2021/12/15 06:10:23;;;;;;;3.47;2.90;;;2.60;99.90;;;;;;5012929;28;20256;-66
2021/12/15 06:12:52;;;;;;;3.10;2.70;;;2.60;99.90;;;;;;5013929;28;20194;-66
2021/12/15 06:15:22;;;;;;;2.97;2.78;;;2.60;99.90;;;;;;5013622;28;20288;-66
2021/12/15 06:17:52;;;;;;;3.50;2.88;;;2.60;99.90;;;;;;5013820;28;20268;-66
2021/12/15 06:20:19;;;;;;;3.20;3.00;;;2.60;99.90;;;;;;5017285;28;20237;-66
2021/12/15 06:22:47;;;;;;;2.65;2.45;;;2.60;99.90;;;;;;5017129;28;20238;-66
2021/12/15 06:25:14;;;;;;;2.95;2.75;;;2.60;99.90;;;;;;5017698;28;20198;-66
2021/12/15 06:27:41;;;;;;;3.58;3.28;;;2.50;99.90;;;;;;5017209;28;20272;-66
2021/12/15 06:30:10;;;;;;;3.10;2.90;;;2.40;99.90;;;;;;5016832;28;20284;-66
2021/12/15 06:32:37;;;;;;;3.47;3.17;;;2.40;99.90;;;;;;5017073;28;20245;-66
2021/12/15 06:35:07;;;;;;;2.88;2.65;;;2.30;99.90;;;;;;5016895;28;20254;-66
2021/12/15 06:37:34;;;;;;;3.08;2.85;;;2.30;99.90;;;;;;5016734;28;20265;-66
2021/12/15 06:40:01;;;;;;;2.60;2.40;;;2.30;99.90;;;;;;5016299;28;20252;-67
2021/12/15 06:42:29;;;;;;;2.28;2.10;;;2.30;99.90;;;;;;5016294;28;20245;-66
2021/12/15 06:44:57;;;;;;;1.80;1.73;;;2.30;99.90;;;;;;5015965;28;20205;-66
2021/12/15 06:57:13;;;;;;;1.95;1.95;;;2.30;99.90;;;;;;5015990;28;20225;-66
2021/12/15 06:58:36;;;;;;;2.33;2.22;;;2.30;99.90;;;;;;5015916;28;20261;-65
2021/12/15 07:01:05;;;;;;;3.80;3.50;;;2.30;99.90;;;;;;5016374;28;20233;-65
2021/12/15 07:03:32;;;;;;;3.55;3.25;;;2.20;99.90;;;;;;5015945;28;20233;-66
2021/12/15 07:06:00;;;;;;;4.32;3.70;;;2.10;99.90;;;;;;5016004;28;20253;-65
2021/12/15 07:08:28;;;;;;;3.33;3.03;;;2.10;99.90;;;;;;5015560;28;20720;-66
2021/12/15 07:10:57;;;;;;;3.35;3.05;;;2.10;99.90;;;;;;5015558;28;20212;-65
2021/12/15 07:13:26;;;;;;;2.65;2.50;;;2.10;99.90;;;;;;5015601;28;20241;-65
2021/12/15 07:15:59;;;;;;;2.63;2.50;;;2.20;99.90;;;;;;5015311;28;20652;-66
2021/12/15 07:18:37;;;;;;;4.07;3.30;;;2.20;99.90;;;;;;5015629;28;20221;-67
2021/12/15 07:21:09;;;;;;;2.38;2.28;;;2.20;99.90;;;;;;5015822;28;20190;-67
2021/12/15 07:23:37;;;;;;;2.47;2.28;;;2.20;99.90;;;;;;5015666;28;20186;-67
2021/12/15 07:26:05;;;;;;;2.92;2.72;;;2.20;99.90;;;;;;5015275;28;20665;-67
2021/12/15 07:28:33;;;;;;;2.97;2.78;;;2.20;99.90;;;;;;5014854;28;20716;-67
2021/12/15 07:31:01;;;;;;;3.40;3.20;;;2.20;99.90;;;;;;5015748;28;20263;-66
2021/12/15 07:33:28;;;;;;;2.80;2.50;;;2.20;99.90;;;;;;5017113;28;20202;-66
2021/12/15 07:35:56;;;;;;;2.50;2.35;;;2.20;99.90;;;;;;5016888;28;20709;-68
2021/12/15 07:38:25;;;;;;;2.65;2.45;;;2.20;99.90;;;;;;5017041;28;20222;-68
2021/12/15 07:40:52;;;;;;;2.88;2.67;;;2.30;99.90;;;;;;5016466;28;20233;-67
2021/12/15 07:43:25;;;;;;;2.45;2.35;;;2.20;99.90;;;;;;5016045;28;20283;-67
2021/12/15 07:46:00;;;;;;;2.80;2.22;;;2.20;99.90;;;;;;5015429;28;20594;-67
2021/12/15 07:48:30;;;;;;;2.15;1.95;;;2.30;99.90;;;;;;5014826;28;20225;-67
2021/12/15 07:50:59;;;;;;;2.10;1.98;;;2.30;99.90;;;;;;5015754;28;20202;-67
2021/12/15 07:53:28;;;;;;;1.90;1.80;;;2.30;99.90;;;;;;5015180;28;20264;-67
2021/12/15 07:55:56;;;;;;;2.08;1.98;;;2.30;99.90;;;;;;5014965;28;20260;-67
2021/12/15 07:58:25;;;;;;;1.83;1.73;;;2.20;99.90;;;;;;5015186;28;20254;-67
2021/12/15 08:00:55;;;;;;;1.90;1.80;;;2.20;99.90;;;;;;5014474;28;20237;-67
2021/12/15 08:03:23;;;;;;;2.30;2.20;;;2.20;99.90;;;;;;5014408;28;20570;-67
2021/12/15 08:05:52;;;;;;;1.70;1.70;;;2.20;99.90;;;;;;5014719;28;20198;-67
2021/12/15 08:08:20;;;;;;;1.90;1.80;;;2.10;99.90;;;;;;5014564;28;20632;-67
2021/12/15 08:10:49;;;;;;;1.70;1.65;;;2.20;99.90;;;;;;5014326;28;20248;-67
2021/12/15 08:13:19;;;;;;;1.45;1.45;;;2.20;99.90;;;;;;5014273;28;20662;-66
2021/12/15 08:15:46;;;;;;;1.70;1.60;;;2.10;99.90;;;;;;5014221;28;20246;-66
2021/12/15 08:18:13;;;;;;;1.80;1.70;;;2.10;99.90;;;;;;5014305;28;20230;-66
2021/12/15 08:20:41;;;;;;;1.55;1.50;;;2.10;99.90;;;;;;5014154;28;20233;-66
2021/12/15 08:23:08;;;;;;;2.50;1.77;;;2.20;99.90;;;;;;5014033;28;20568;-67
2021/12/15 08:25:36;;;;;;;1.55;1.50;;;2.20;99.90;;;;;;5014377;28;20230;-67
2021/12/15 08:28:06;;;;;;;1.42;1.42;;;2.20;99.90;;;;;;5014221;28;20262;-67
2021/12/15 08:30:34;;;;;;;1.58;1.58;;;2.20;99.90;;;;;;5014245;28;20368;-67
2021/12/15 08:33:06;;;;;;;1.58;1.58;;;2.30;99.90;;;;;;5013947;28;20247;-67
2021/12/15 08:35:36;;;;;;;2.08;1.98;;;2.30;99.90;;;;;;5014127;28;20241;-66
2021/12/15 08:38:04;;;;;;;2.42;2.33;;;2.20;99.90;;;;;;5014070;28;20265;-67
2021/12/15 08:40:31;;;;;;;3.10;2.80;;;2.20;99.90;;;;;;5013328;28;20589;-66
2021/12/15 08:42:59;;;;;;;3.17;2.83;;;2.10;99.90;;;;;;5013846;28;20238;-66
2021/12/15 08:45:28;;;;;;;2.67;2.58;;;2.10;99.90;;;;;;5014237;28;20234;-66
2021/12/15 08:47:58;;;;;;;3.17;2.97;;;2.10;99.90;;;;;;5014132;28;20258;-67
2021/12/15 08:50:29;;;;;;;3.08;2.97;;;2.00;99.90;;;;;;5014072;28;20202;-67
2021/12/15 08:53:00;;;;;;;3.03;2.83;;;2.10;99.90;;;;;;5013773;28;20187;-68
2021/12/15 08:55:28;;;;;;;3.30;3.00;;;2.10;99.90;;;;;;5013653;28;20209;-67
2021/12/15 08:57:57;;;;;;;2.92;2.55;;;2.10;99.90;;;;;;5013829;28;20226;-67
2021/12/15 09:00:26;;;;;;;2.17;2.08;;;2.20;99.90;;;;;;5013598;28;20187;-67
2021/12/15 09:02:55;;;;;;;2.17;2.08;;;2.10;99.90;;;;;;5013803;28;20205;-67
2021/12/15 09:05:23;;;;;;;2.58;2.47;;;2.10;99.90;;;;;;5013488;28;20198;-67
2021/12/15 09:07:51;;;;;;;2.22;2.05;;;2.10;99.90;;;;;;5013397;28;20587;-68
2021/12/15 09:10:19;;;;;;;2.35;2.25;;;2.20;99.90;;;;;;5013311;28;20253;-67
2021/12/15 09:12:46;;;;;;;3.50;2.70;;;2.20;99.90;;;;;;5013406;28;20237;-67
2021/12/15 09:15:13;;;;;;;2.65;2.45;;;2.30;99.90;;;;;;5013664;28;20260;-67
2021/12/15 09:17:41;;;;;;;2.58;2.40;;;2.40;99.90;;;;;;5013299;28;20724;-67
2021/12/15 09:20:12;;;;;;;4.35;3.75;;;2.40;99.90;;;;;;5013619;28;20230;-67
2021/12/15 09:22:39;;;;;;;3.20;2.90;;;2.40;99.90;;;;;;5013751;28;20238;-67
2021/12/15 09:25:08;;;;;;;3.22;3.03;;;2.40;99.90;;;;;;5013517;28;20255;-67
2021/12/15 09:27:35;;;;;;;3.65;3.35;;;2.40;99.90;;;;;;5013568;28;20643;-67
2021/12/15 09:30:02;;;;;;;4.25;3.85;;;2.40;99.90;;;;;;5013529;28;20237;-67
2021/12/15 09:32:29;;;;;;;6.30;4.47;;;2.40;99.90;;;;;;5013543;28;20206;-67
2021/12/15 09:34:56;;;;;;;5.25;4.13;;;2.40;99.90;;;;;;5013447;28;20332;-67
2021/12/15 09:37:25;;;;;;;4.32;3.92;;;2.40;99.90;;;;;;5013265;28;20268;-67
2021/12/15 09:39:52;;;;;;;4.18;3.78;;;2.40;99.90;;;;;;5013409;28;20249;-67
2021/12/15 09:42:20;;;;;;;3.20;2.97;;;2.50;99.90;;;;;;5013158;28;20239;-67
2021/12/15 09:44:51;;;;;;;4.10;3.70;;;2.50;99.90;;;;;;5013499;28;20202;-67
2021/12/15 09:47:35;;;;;;;4.38;3.40;;;2.50;99.90;;;;;;5013367;28;20232;-67
2021/12/15 10:04:16;;;;;;;3.80;3.50;;;2.60;99.90;;;;;;4979029;28;20191;-67
2021/12/15 10:07:14;;;;;;;3.13;2.92;;;2.60;99.90;;;;;;5016622;28;20681;-67
2021/12/15 10:17:21;;;;;;;3.72;3.17;;;2.70;99.90;;;;;;5016504;28;20193;-67
2021/12/15 10:18:13;;;;;;;3.60;3.30;;;2.70;99.90;;;;;;5016192;28;20696;-67
2021/12/15 10:20:40;;;;;;;3.42;3.22;;;2.70;99.90;;;;;;5015731;28;20190;-67
2021/12/15 10:23:11;;;;;;;3.22;3.03;;;2.60;99.90;;;;;;5015702;28;20696;-67
2021/12/15 10:25:44;;;;;;;3.45;3.15;;;2.60;99.90;;;;;;5016614;28;20274;-67
2021/12/15 10:28:14;;;;;;;3.70;3.40;;;2.50;99.90;;;;;;5016422;28;20268;-67
2021/12/15 10:30:43;;;;;;;3.75;3.13;;;2.60;99.90;;;;;;5016236;28;20240;-67
2021/12/15 10:33:13;;;;;;;5.65;3.53;;;2.60;99.90;;;;;;5015955;28;20202;-67
2021/12/15 10:35:42;;;;;;;3.10;2.80;;;2.60;99.90;;;;;;5016169;28;20261;-67
2021/12/15 10:38:28;;;;;;;3.92;3.47;;;2.70;99.90;;;;;;5016094;28;20218;-67
2021/12/15 10:41:04;;;;;;;3.08;2.88;;;2.80;99.90;;;;;;5016202;28;20556;-67
2021/12/15 10:43:35;;;;;;;2.42;2.28;;;2.90;99.90;;;;;;5015809;28;20659;-67
2021/12/15 10:46:08;;;;;;;3.13;2.92;;;2.90;99.90;;;;;;5016190;28;20218;-66
2021/12/15 10:48:46;;;;;;;3.47;2.72;;;2.90;99.90;;;;;;5015839;28;20672;-67
2021/12/15 10:51:31;;;;;;;3.03;2.83;;;2.90;99.90;;;;;;5016159;28;20186;-66
2021/12/15 10:54:00;;;;;;;4.88;2.65;;;2.90;99.90;;;;;;5016063;28;20214;-67
2021/12/15 10:56:32;;;;;;;2.53;2.33;;;2.80;99.90;;;;;;5016162;28;20221;-67
2021/12/15 10:59:02;;;;;;;2.47;2.38;;;2.80;99.90;;;;;;5015992;28;20275;-67
2021/12/15 11:01:42;;;;;;;2.60;2.50;;;2.90;99.90;;;;;;5015955;28;20241;-67
2021/12/15 11:04:29;;;;;;;2.15;2.05;;;2.90;99.90;;;;;;5014793;28;20244;-67
2021/12/15 11:07:12;;;;;;;2.65;2.30;;;3.00;99.90;;;;;;5015406;28;20182;-67
2021/12/15 11:09:42;;;;;;;2.05;2.00;;;3.00;99.90;;;;;;5015623;28;20182;-67
2021/12/15 11:12:14;;;;;;;2.17;2.08;;;3.00;99.90;;;;;;5015480;28;20278;-67
2021/12/15 11:14:44;;;;;;;2.63;2.50;;;3.10;99.90;;;;;;5015398;28;20593;-67
2021/12/15 11:17:15;;;;;;;2.70;2.50;;;3.10;99.90;;;;;;5015980;28;20257;-67
2021/12/15 11:19:59;;;;;;;2.30;2.20;;;3.10;99.90;;;;;;5016218;28;20200;-69
2021/12/15 11:22:50;;;;;;;2.35;2.25;;;3.10;99.90;;;;;;5016050;28;20196;-69
2021/12/15 11:25:36;;;;;;;3.42;3.13;;;3.10;99.90;;;;;;5015994;28;20265;-66
2021/12/15 11:28:14;;;;;;;3.50;3.20;;;3.10;99.90;;;;;;5012436;28;20305;-68
2021/12/15 11:30:45;;;;;;;2.97;2.78;;;3.10;99.90;;;;;;5015886;28;20194;-66
2021/12/15 11:33:17;;;;;;;3.25;2.90;;;3.10;99.90;;;;;;5015363;28;20366;-66
2021/12/15 11:35:49;;;;;;;3.28;2.90;;;3.10;99.90;;;;;;5014903;28;20213;-67
2021/12/15 11:38:21;;;;;;;2.53;2.33;;;3.10;99.90;;;;;;5015400;28;20229;-69
2021/12/15 11:41:01;;;;;;;2.33;2.22;;;3.20;99.90;;;;;;5016184;28;20203;-69
2021/12/15 11:43:35;;;;;;;2.97;2.35;;;3.20;99.90;;;;;;5016567;28;20190;-67
2021/12/15 11:46:16;;;;;;;2.92;2.72;;;3.20;99.90;;;;;;5020357;28;20193;-68
2021/12/15 11:48:44;;;;;;;2.25;2.00;;;3.10;99.90;;;;;;5022673;28;20723;-68
2021/12/15 11:51:14;;;;;;;2.20;2.10;;;3.10;99.90;;;;;;5027304;28;20684;-67
2021/12/15 11:53:51;;;;;;;3.97;2.63;;;3.10;99.90;;;;;;5023450;28;20206;-69
2021/12/15 11:56:26;;;;;;;2.25;2.15;;;3.10;99.90;;;;;;5023618;28;20266;-67
2021/12/15 11:59:00;;;;;;;2.95;2.85;;;3.00;99.90;;;;;;5015867;28;20217;-70
2021/12/15 12:01:49;;;;;;;3.05;2.85;;;2.90;99.90;;;;;;5016204;28;20221;-69
2021/12/15 12:04:29;;;;;;;3.05;2.85;;;2.90;99.90;;;;;;5014556;28;20653;-68
2021/12/15 12:07:09;;;;;;;2.33;2.20;;;3.00;99.90;;;;;;5014733;28;20182;-69
2021/12/15 12:09:38;;;;;;;2.45;2.35;;;3.10;99.90;;;;;;5014580;28;20197;-69
2021/12/15 12:12:08;;;;;;;2.35;2.15;;;3.10;99.90;;;;;;5014319;28;20186;-69
2021/12/15 12:14:42;;;;;;;1.95;1.92;;;3.20;99.90;;;;;;5014625;28;20218;-68
2021/12/15 12:17:13;;;;;;;1.83;1.80;;;3.20;99.90;;;;;;5014515;28;20206;-69
2021/12/15 12:19:46;;;;;;;2.10;2.00;;;3.20;99.90;;;;;;5014562;28;20318;-68
2021/12/15 12:22:14;;;;;;;2.00;1.90;;;3.30;99.90;;;;;;5014362;28;20222;-69
2021/12/15 12:24:45;;;;;;;2.08;1.98;;;3.30;99.90;;;;;;5017508;28;20260;-70
2021/12/15 12:27:12;;;;;;;2.35;2.25;;;3.30;99.90;;;;;;5017927;28;20190;-71
2021/12/15 12:29:42;;;;;;;2.00;1.90;;;3.30;99.90;;;;;;5017668;28;20285;-67
2021/12/15 12:32:11;;;;;;;2.28;2.17;;;3.40;99.90;;;;;;5017898;28;20202;-69
2021/12/15 12:34:40;;;;;;;2.00;1.90;;;3.40;99.90;;;;;;5018747;28;20228;-66
2021/12/15 12:37:08;;;;;;;2.20;2.10;;;3.40;99.90;;;;;;5017732;28;20272;-66
2021/12/15 12:39:37;;;;;;;2.13;2.03;;;3.30;99.90;;;;;;5016976;28;20209;-67
2021/12/15 12:42:08;;;;;;;1.73;1.73;;;3.30;99.90;;;;;;5018157;28;20240;-70
2021/12/15 12:44:40;;;;;;;1.60;1.50;;;3.40;99.90;;;;;;5016945;28;20206;-70
2021/12/15 12:47:26;;;;;;;1.95;1.85;;;3.40;99.90;;;;;;5017034;28;20178;-66
2021/12/15 12:50:16;;;;;;;1.90;1.90;;;3.40;99.90;;;;;;5017316;28;20194;-66
2021/12/15 13:01:18;;;;;;;1.92;1.83;;;3.30;99.90;;;;;;5014219;28;20185;-71
2021/12/15 13:03:53;;;;;;;2.10;2.00;;;3.40;99.90;;;;;;5014074;28;20208;-70
2021/12/15 13:06:22;;;;;;;2.15;2.05;;;3.40;99.90;;;;;;5014316;28;20217;-69
2021/12/15 13:08:54;;;;;;;2.60;2.50;;;3.40;99.90;;;;;;5013899;28;20253;-69
2021/12/15 13:11:34;;;;;;;2.50;2.40;;;3.40;99.90;;;;;;5013882;28;20209;-69
2021/12/15 13:14:08;;;;;;;2.20;2.10;;;3.40;99.90;;;;;;5013949;28;20196;-69
2021/12/15 13:16:42;;;;;;;2.88;2.67;;;3.40;99.90;;;;;;5013634;28;20209;-69
2021/12/15 13:19:24;;;;;;;2.90;2.78;;;3.40;99.90;;;;;;5013629;28;20229;-69
2021/12/15 13:22:05;;;;;;;3.53;3.20;;;3.30;99.90;;;;;;5013670;28;20186;-69
2021/12/15 13:30:45;;;;;;;2.55;2.42;;;3.40;99.90;;;;;;5018876;28;20184;-71
2021/12/15 13:33:16;;;;;;;2.35;2.25;;;3.40;99.90;;;;;;5018795;28;20182;-70
2021/12/15 13:35:52;;;;;;;2.42;2.33;;;3.40;99.90;;;;;;5018236;28;20194;-69
2021/12/15 13:38:23;;;;;;;2.25;2.15;;;3.50;99.90;;;;;;5017601;28;20231;-66
2021/12/15 13:40:59;;;;;;;2.20;2.10;;;3.50;99.90;;;;;;5017759;28;20593;-66
2021/12/15 13:43:39;;;;;;;1.70;1.70;;;3.50;99.90;;;;;;5017707;28;20192;-70
2021/12/15 13:46:09;;;;;;;2.25;2.15;;;3.40;99.90;;;;;;5018052;28;20222;-71
2021/12/15 13:48:57;;;;;;;2.42;2.33;;;3.40;99.90;;;;;;5017416;28;20214;-70
2021/12/15 13:52:02;;;;;;;2.42;2.33;;;3.40;99.90;;;;;;5015941;28;20202;-70
2021/12/15 13:55:04;;;;;;;2.40;2.30;;;3.40;99.90;;;;;;5016966;28;20201;-70
2021/12/15 13:57:38;;;;;;;2.53;2.42;;;3.40;99.90;;;;;;5016733;28;20245;-70
2021/12/15 14:00:31;;;;;;;1.88;1.77;;;3.40;99.90;;;;;;5017412;28;20209;-70
2021/12/15 14:03:19;;;;;;;2.78;2.58;;;3.40;99.90;;;;;;5017395;28;20218;-70
2021/12/15 14:05:50;;;;;;;2.30;2.20;;;3.40;99.90;;;;;;5015327;28;20661;-69
2021/12/15 14:08:20;;;;;;;2.50;2.30;;;3.40;99.90;;;;;;5018020;28;20237;-66
2021/12/15 14:10:54;;;;;;;2.20;2.10;;;3.30;99.90;;;;;;5017017;28;20643;-69
2021/12/15 14:13:36;;;;;;;2.00;1.90;;;3.30;99.90;;;;;;5016553;28;20186;-69
2021/12/15 14:16:08;;;;;;;2.17;2.08;;;3.30;99.90;;;;;;5016591;28;20665;-69
2021/12/15 14:18:39;;;;;;;2.10;2.00;;;3.30;99.90;;;;;;5018501;28;20222;-65
2021/12/15 14:21:12;;;;;;;2.00;1.90;;;3.30;99.90;;;;;;5017067;28;20186;-65
2021/12/15 14:23:46;;;;;;;2.08;1.95;;;3.30;99.90;;;;;;5016524;28;20206;-66
2021/12/15 14:26:16;;;;;;;1.40;1.40;;;3.30;99.90;;;;;;5016341;28;20194;-66
2021/12/15 14:28:47;;;;;;;1.73;1.73;;;3.30;99.90;;;;;;5016558;28;20646;-66
2021/12/15 14:31:19;;;;;;;2.40;2.30;;;3.30;99.90;;;;;;5015261;28;20279;-66
2021/12/15 14:33:48;;;;;;;2.03;1.92;;;3.30;99.90;;;;;;5016696;28;20187;-67
2021/12/15 14:36:21;;;;;;;2.20;2.10;;;3.30;99.90;;;;;;5016085;28;20237;-67
2021/12/15 14:38:51;;;;;;;1.90;1.80;;;3.30;99.90;;;;;;5015112;28;20234;-67
2021/12/15 14:41:20;;;;;;;2.13;2.03;;;3.30;99.90;;;;;;5017022;28;20192;-67
2021/12/15 14:43:58;;;;;;;1.75;1.75;;;3.20;99.90;;;;;;5016529;28;20206;-67
2021/12/15 14:46:29;;;;;;;2.72;2.53;;;3.10;99.90;;;;;;5016426;28;20186;-66
2021/12/15 14:49:11;;;;;;;3.58;3.28;;;3.10;99.90;;;;;;5016341;28;20257;-66
2021/12/15 14:51:40;;;;;;;2.95;2.75;;;3.00;99.90;;;;;;5016110;28;20229;-66
2021/12/15 14:54:09;;;;;;;3.88;2.85;;;3.00;99.90;;;;;;5015911;28;20241;-67
2021/12/15 14:56:43;;;;;;;3.10;2.90;;;3.00;99.90;;;;;;5016027;28;20221;-67
2021/12/15 14:59:15;;;;;;;2.45;2.33;;;2.90;99.90;;;;;;5015986;28;20254;-67
2021/12/15 15:01:43;;;;;;;2.60;2.40;;;2.90;99.90;;;;;;5015891;28;20724;-66
2021/12/15 15:04:13;;;;;;;2.38;2.28;;;2.90;99.90;;;;;;5015952;28;20629;-66
2021/12/15 15:06:43;;;;;;;2.10;2.00;;;3.00;99.90;;;;;;5015799;28;20294;-67
2021/12/15 15:09:21;;;;;;;2.45;2.35;;;2.90;99.90;;;;;;5015687;28;20225;-67
2021/12/15 15:12:08;;;;;;;1.70;1.70;;;2.90;99.90;;;;;;5015334;28;20245;-67
2021/12/15 15:14:51;;;;;;;1.55;1.50;;;2.80;99.90;;;;;;5015345;28;20548;-67
2021/12/15 15:17:28;;;;;;;1.80;1.70;;;2.80;99.90;;;;;;5015339;28;20687;-66
2021/12/15 15:19:58;;;;;;;1.90;1.83;;;2.90;99.90;;;;;;5015589;28;20190;-67
2021/12/15 15:22:27;;;;;;;3.65;1.83;;;2.80;99.90;;;;;;5015733;28;20229;-67
2021/12/15 15:24:56;;;;;;;1.90;1.90;;;2.80;99.90;;;;;;5015579;28;20250;-67
2021/12/15 15:27:24;;;;;;;1.95;1.85;;;2.80;99.90;;;;;;5015550;28;20254;-67
2021/12/15 15:29:55;;;;;;;2.15;2.05;;;2.80;99.90;;;;;;5015132;28;20218;-67
2021/12/15 15:32:25;;;;;;;2.15;2.05;;;2.80;99.90;;;;;;5015391;28;20214;-68
2021/12/15 15:34:56;;;;;;;2.20;2.10;;;2.80;99.90;;;;;;5015596;28;20233;-65
2021/12/15 15:37:26;;;;;;;1.63;1.63;;;2.80;99.90;;;;;;5014892;28;20258;-68
2021/12/15 15:40:23;;;;;;;2.00;1.90;;;2.80;99.90;;;;;;5015203;28;20299;-67
2021/12/15 15:42:57;;;;;;;3.00;2.83;;;2.80;99.90;;;;;;5015045;28;20205;-67
2021/12/15 15:45:30;;;;;;;3.30;3.10;;;2.80;99.90;;;;;;5015189;28;20206;-67
2021/12/15 15:47:58;;;;;;;3.00;2.80;;;2.70;99.90;;;;;;5015243;28;20217;-68
2021/12/15 15:50:26;;;;;;;3.08;2.78;;;2.80;99.90;;;;;;5014757;28;20233;-67
2021/12/15 15:52:57;;;;;;;2.88;2.78;;;2.80;99.90;;;;;;5015175;28;20248;-68
2021/12/15 15:55:25;;;;;;;2.60;2.50;;;2.70;99.90;;;;;;5015090;28;20208;-67
2021/12/15 15:57:55;;;;;;;3.17;2.97;;;2.70;99.90;;;;;;5014574;28;20641;-67
2021/12/15 16:00:27;;;;;;;2.53;2.42;;;2.70;99.90;;;;;;5014667;28;20669;-66
2021/12/15 16:02:55;;;;;;;2.55;2.45;;;2.70;99.90;;;;;;5015013;28;20186;-66
2021/12/15 16:05:23;;;;;;;1.95;1.90;;;2.70;99.90;;;;;;5015452;28;20622;-67
2021/12/15 16:07:51;;;;;;;2.60;2.50;;;2.60;99.90;;;;;;5014294;28;20661;-66
2021/12/15 16:10:22;;;;;;;2.42;2.33;;;2.60;99.90;;;;;;5014629;28;20288;-66
2021/12/15 16:12:49;;;;;;;2.35;2.25;;;2.60;99.90;;;;;;5014860;28;20233;-65
2021/12/15 16:15:17;;;;;;;2.42;2.33;;;2.60;99.90;;;;;;5014641;28;20255;-66
2021/12/15 16:17:55;;;;;;;3.22;3.03;;;2.60;99.90;;;;;;5015067;28;20304;-66
2021/12/15 16:20:26;;;;;;;2.63;2.53;;;2.50;99.90;;;;;;5015344;28;20194;-67
2021/12/15 16:23:03;;;;;;;3.72;3.45;;;2.50;99.90;;;;;;5015233;28;20197;-67
2021/12/15 16:25:34;;;;;;;3.40;3.10;;;2.40;99.90;;;;;;5014993;28;20199;-66
2021/12/15 16:28:07;;;;;;;3.55;3.15;;;2.40;99.90;;;;;;5015482;28;20232;-66
2021/12/15 16:30:38;;;;;;;3.20;2.90;;;2.40;99.90;;;;;;5015763;28;20194;-66
2021/12/15 16:33:10;;;;;;;2.78;2.58;;;2.40;99.90;;;;;;5016303;28;20675;-66
2021/12/15 16:35:40;;;;;;;3.15;2.95;;;2.30;99.90;;;;;;5016304;28;20186;-66
2021/12/15 16:38:19;;;;;;;3.33;3.13;;;2.30;99.90;;;;;;5015744;28;20257;-66
2021/12/15 16:40:53;;;;;;;4.15;3.80;;;2.30;99.90;;;;;;5015507;28;20198;-66
2021/12/15 16:43:21;;;;;;;3.42;3.20;;;2.30;99.90;;;;;;5016046;28;20217;-66
2021/12/15 16:45:48;;;;;;;4.30;3.75;;;2.20;99.90;;;;;;5015774;28;20202;-66
2021/12/15 16:48:35;;;;;;;3.22;3.03;;;2.20;99.90;;;;;;5015625;28;20301;-65
2021/12/15 16:51:06;;;;;;;4.15;3.85;;;2.20;99.90;;;;;;5015555;28;20224;-65
2021/12/15 16:53:38;;;;;;;6.22;4.88;;;2.30;99.90;;;;;;5015930;28;20191;-66
2021/12/15 16:56:06;;;;;;;5.28;4.78;;;2.30;99.90;;;;;;5015757;28;20186;-65
2021/12/15 16:58:33;;;;;;;4.32;4.00;;;2.20;99.90;;;;;;5015779;28;20266;-66
2021/12/15 17:01:01;;;;;;;4.10;3.75;;;2.20;99.90;;;;;;5015150;28;20244;-66
2021/12/15 17:03:37;;;;;;;5.88;3.95;;;2.20;99.90;;;;;;5013957;28;20245;-65
2021/12/15 17:06:05;;;;;;;4.30;3.95;;;2.30;99.90;;;;;;5014073;28;20292;-66
2021/12/15 17:08:32;;;;;;;3.55;3.35;;;2.20;99.90;;;;;;5013900;28;20222;-65
2021/12/15 17:11:08;;;;;;;4.50;4.10;;;2.30;99.90;;;;;;5013463;28;20245;-65
2021/12/15 17:13:38;;;;;;;3.28;3.03;;;2.30;99.90;;;;;;5013690;28;20186;-65
2021/12/15 17:16:09;;;;;;;4.43;4.13;;;2.30;99.90;;;;;;5013503;28;20650;-66
2021/12/15 17:18:40;;;;;;;4.32;3.92;;;2.30;99.90;;;;;;5013550;28;20226;-65
2021/12/15 17:21:19;;;;;;;4.18;3.88;;;2.20;99.90;;;;;;5014005;28;20214;-65
2021/12/15 17:23:51;;;;;;;3.88;3.58;;;2.20;99.90;;;;;;5013509;28;20632;-65
2021/12/15 17:26:22;;;;;;;3.83;3.55;;;2.20;99.90;;;;;;5013852;28;20194;-65
2021/12/15 17:28:51;;;;;;;4.30;3.90;;;2.20;99.90;;;;;;5013464;28;20736;-65
2021/12/15 17:31:21;;;;;;;3.72;3.50;;;2.20;99.90;;;;;;5013580;28;20673;-67
2021/12/15 17:33:56;;;;;;;4.07;3.72;;;2.20;99.90;;;;;;5013794;28;20241;-66
2021/12/15 17:36:31;;;;;;;5.75;3.92;;;2.20;99.90;;;;;;5013721;28;20217;-66
2021/12/15 17:39:13;;;;;;;3.92;3.60;;;2.20;99.90;;;;;;5012913;28;20260;-66
2021/12/15 17:41:44;;;;;;;4.75;4.28;;;2.20;99.90;;;;;;5013336;28;20240;-66
2021/12/15 17:44:15;;;;;;;4.05;3.78;;;2.10;99.90;;;;;;5013676;28;20241;-66
2021/12/15 17:46:45;;;;;;;5.00;4.60;;;2.00;99.90;;;;;;5013612;28;20221;-66
2021/12/15 17:49:18;;;;;;;4.90;4.50;;;2.00;99.90;;;;;;5013309;28;20257;-66
2021/12/15 17:51:50;;;;;;;5.32;4.82;;;2.00;99.90;;;;;;5013200;28;20198;-66
2021/12/15 17:54:26;;;;;;;5.00;4.60;;;2.00;99.90;;;;;;5013687;28;20218;-66
2021/12/15 17:56:54;;;;;;;6.10;4.70;;;1.90;99.90;;;;;;5013314;28;20657;-65
2021/12/15 17:59:22;;;;;;;6.38;5.22;;;1.90;99.90;;;;;;5013277;28;20261;-66
2021/12/15 18:01:50;;;;;;;4.90;4.50;;;1.90;99.90;;;;;;5012873;28;20677;-66
2021/12/15 18:04:19;;;;;;;4.65;4.15;;;1.80;99.90;;;;;;5012985;28;20205;-66
2021/12/15 18:06:47;;;;;;;4.28;3.95;;;1.90;99.90;;;;;;5013382;28;20259;-66
2021/12/15 18:09:15;;;;;;;4.90;4.18;;;1.80;99.90;;;;;;5013499;28;20218;-66
2021/12/15 18:11:43;;;;;;;5.05;4.68;;;1.80;99.90;;;;;;5012821;28;20214;-66
2021/12/15 18:14:12;;;;;;;4.53;4.10;;;1.80;99.90;;;;;;5016125;28;20228;-66
2021/12/15 18:16:40;;;;;;;4.93;4.53;;;1.70;99.90;;;;;;5019094;28;20233;-66
2021/12/15 18:19:08;;;;;;;4.38;4.07;;;1.70;99.90;;;;;;5018597;28;20272;-66
2021/12/15 18:21:40;;;;;;;4.38;3.97;;;1.70;99.90;;;;;;5018035;28;20238;-66
2021/12/15 18:24:10;;;;;;;5.10;4.60;;;1.70;99.90;;;;;;5017753;28;20214;-66
2021/12/15 18:26:38;;;;;;;3.90;3.60;;;1.80;99.90;;;;;;5017979;28;20237;-66
2021/12/15 18:29:07;;;;;;;4.53;4.13;;;1.80;99.90;;;;;;5018845;28;20253;-66
2021/12/15 18:31:37;;;;;;;4.78;4.38;;;1.80;99.90;;;;;;5021587;28;20700;-66
2021/12/15 18:34:08;;;;;;;4.75;4.32;;;1.70;99.90;;;;;;5020142;28;20704;-66
2021/12/15 18:36:38;;;;;;;4.55;4.15;;;1.70;99.90;;;;;;5020653;28;20586;-66
2021/12/15 18:39:08;;;;;;;5.97;4.28;;;1.70;99.90;;;;;;5020528;28;20226;-66
2021/12/15 18:41:38;;;;;;;6.35;5.03;;;1.70;99.90;;;;;;5020822;28;20206;-66
2021/12/15 18:44:06;;;;;;;5.40;4.88;;;1.70;99.90;;;;;;5020326;28;20297;-66
2021/12/15 18:46:36;;;;;;;5.00;4.50;;;1.60;99.90;;;;;;5021009;28;20202;-67
2021/12/15 18:49:09;;;;;;;4.18;3.88;;;1.60;99.90;;;;;;5020973;28;20222;-66
2021/12/15 18:51:39;;;;;;;3.95;3.65;;;1.60;99.90;;;;;;5019939;28;20194;-67
2021/12/15 18:54:07;;;;;;;4.10;3.80;;;1.60;99.90;;;;;;5018594;28;20620;-67
2021/12/15 18:56:35;;;;;;;5.40;4.90;;;1.60;99.90;;;;;;5018281;28;20237;-67
2021/12/15 18:59:03;;;;;;;5.55;4.80;;;1.60;99.90;;;;;;5018781;28;20257;-68
2021/12/15 19:01:34;;;;;;;5.72;5.13;;;1.50;99.90;;;;;;5020992;28;20202;-68
2021/12/15 19:04:02;;;;;;;4.82;4.43;;;1.50;99.90;;;;;;5021955;28;20619;-68
2021/12/15 19:06:29;;;;;;;4.40;4.03;;;1.50;99.90;;;;;;5017519;28;20661;-68
2021/12/15 19:08:58;;;;;;;7.88;5.15;;;1.50;99.90;;;;;;5016064;28;20253;-68
2021/12/15 19:11:26;;;;;;;4.90;4.40;;;1.60;99.90;;;;;;5015428;28;20241;-68